Terminal Aerodrome Forecast
Issued by NWS

Home | Current Version | Previous Version | Graphics & Text | Print | Product List | Glossary On
Versions: 1 2 3 4 5 6 7 8 9 10 11 12 13 14
105
FTUS43 KOAX 072326
TAFCDR
TAF
KCDR 072326Z 0800/0824 29015G24KT P6SM BKN250
     FM081200 29011KT P6SM SCT250=

USA.gov is the U.S. government's official web portal to all federal, state and local government web resources and services.